createdAt,value
2022-10-20T00:01:35.987Z,4.21
2022-10-20T00:04:04.800Z,4.20
2022-10-20T00:06:33.667Z,4.17
2022-10-20T00:09:09.131Z,4.14
2022-10-20T00:11:39.674Z,4.12
2022-10-20T00:14:11.572Z,4.09
2022-10-20T00:16:40.437Z,4.08
2022-10-20T00:19:09.549Z,4.06
2022-10-20T00:21:38.377Z,4.04
2022-10-20T00:24:07.037Z,4.04
2022-10-20T00:26:35.889Z,4.05
2022-10-20T00:29:04.876Z,4.05
2022-10-20T00:31:34.002Z,4.06
2022-10-20T00:34:02.643Z,4.06
2022-10-20T00:36:32.003Z,4.02
2022-10-20T00:39:02.234Z,4.01
2022-10-20T00:41:31.710Z,4.01
2022-10-20T00:44:02.010Z,3.98
2022-10-20T00:46:39.490Z,3.94
2022-10-20T00:49:14.031Z,3.91
2022-10-20T00:51:48.135Z,3.92
2022-10-20T00:54:20.676Z,3.91
2022-10-20T00:56:50.930Z,3.90
2022-10-20T00:59:25.562Z,3.85
2022-10-20T01:01:54.738Z,3.84
2022-10-20T01:04:24.665Z,3.84
2022-10-20T01:06:54.253Z,3.82
2022-10-20T01:09:25.366Z,3.81
2022-10-20T01:12:03.601Z,3.82
2022-10-20T01:14:43.149Z,3.81
2022-10-20T01:17:23.657Z,3.72
2022-10-20T01:20:27.287Z,3.66
2022-10-20T01:23:27.737Z,3.63
2022-10-20T01:26:26.303Z,3.59
2022-10-20T01:29:00.176Z,3.55
2022-10-20T01:31:34.475Z,3.54
2022-10-20T01:34:10.193Z,3.53
2022-10-20T01:36:47.507Z,3.51
2022-10-20T01:39:23.785Z,3.48
2022-10-20T01:41:58.564Z,3.46
2022-10-20T01:44:32.129Z,3.41
2022-10-20T01:47:02.655Z,3.42
2022-10-20T01:49:31.617Z,3.43
2022-10-20T01:52:03.519Z,3.45
2022-10-20T01:54:32.116Z,3.45
2022-10-20T01:57:18.303Z,3.44
2022-10-20T02:00:01.542Z,3.43
2022-10-20T02:02:50.184Z,3.44
2022-10-20T02:05:40.037Z,3.42
2022-10-20T02:08:16.240Z,3.42
2022-10-20T02:10:48.257Z,3.43
2022-10-20T02:13:20.483Z,3.42
2022-10-20T02:15:52.968Z,3.44
2022-10-20T02:18:25.909Z,3.47
2022-10-20T02:20:57.320Z,3.49
2022-10-20T02:23:26.551Z,3.49
2022-10-20T02:26:01.290Z,3.53
2022-10-20T02:28:36.123Z,3.51
2022-10-20T02:31:08.083Z,3.51
2022-10-20T02:33:37.292Z,3.54
2022-10-20T02:36:11.939Z,3.54
2022-10-20T02:38:40.488Z,3.54
2022-10-20T02:41:09.125Z,3.54
2022-10-20T02:43:38.241Z,3.54
2022-10-20T02:46:07.221Z,3.53
2022-10-20T02:48:37.761Z,3.53
2022-10-20T02:51:06.616Z,3.51
2022-10-20T02:53:37.727Z,3.52
2022-10-20T02:56:07.278Z,3.51
2022-10-20T02:58:36.474Z,3.49
2022-10-20T03:01:05.485Z,3.52
2022-10-20T03:03:34.124Z,3.51
2022-10-20T03:06:09.740Z,3.52
2022-10-20T03:08:38.909Z,3.46
2022-10-20T03:11:10.219Z,3.43
2022-10-20T03:13:38.941Z,3.42
2022-10-20T03:16:08.703Z,3.39
2022-10-20T03:18:39.335Z,3.39
2022-10-20T03:21:08.498Z,3.37
2022-10-20T03:23:37.078Z,3.39
2022-10-20T03:26:08.391Z,3.38
2022-10-20T03:28:36.998Z,3.36
2022-10-20T03:31:06.686Z,3.35
2022-10-20T03:33:35.808Z,3.36
2022-10-20T03:36:05.642Z,3.35
2022-10-20T03:38:34.658Z,3.34
2022-10-20T03:41:03.851Z,3.30
2022-10-20T03:43:32.744Z,3.24
2022-10-20T03:46:06.782Z,3.21
2022-10-20T03:48:36.082Z,3.19
2022-10-20T03:53:49.198Z,3.00
2022-10-20T03:56:19.877Z,3.03
2022-10-20T03:58:50.646Z,3.05
2022-10-20T04:01:23.698Z,3.02
2022-10-20T04:03:52.495Z,3.01
2022-10-20T04:06:23.377Z,3.04
2022-10-20T04:08:54.691Z,3.06
2022-10-20T04:11:23.729Z,3.10
2022-10-20T04:13:52.390Z,3.09
2022-10-20T04:16:21.020Z,3.09
2022-10-20T04:18:51.262Z,3.12
2022-10-20T04:21:19.921Z,3.12
2022-10-20T04:23:48.564Z,3.11
2022-10-20T04:26:17.285Z,3.07
2022-10-20T04:28:45.862Z,3.05
2022-10-20T04:31:14.472Z,3.00
2022-10-20T04:33:46.015Z,2.97
2022-10-20T04:36:14.820Z,2.97
2022-10-20T04:38:43.761Z,2.96
2022-10-20T04:41:12.464Z,2.96
2022-10-20T04:43:41.099Z,2.95
2022-10-20T04:46:11.295Z,2.92
2022-10-20T04:48:43.427Z,2.87
2022-10-20T04:51:15.326Z,2.85
2022-10-20T04:53:44.502Z,2.83
2022-10-20T04:56:17.757Z,2.79
2022-10-20T04:58:51.118Z,2.78
2022-10-20T05:01:25.407Z,2.77
2022-10-20T05:03:54.231Z,2.78
2022-10-20T05:06:24.938Z,2.80
2022-10-20T05:08:55.459Z,2.81
2022-10-20T05:11:26.575Z,2.79
2022-10-20T05:13:55.790Z,2.77
2022-10-20T05:16:27.905Z,2.75
2022-10-20T05:18:57.550Z,2.74
2022-10-20T05:21:28.529Z,2.77
2022-10-20T05:23:58.646Z,2.79
2022-10-20T05:26:31.894Z,2.79
2022-10-20T05:29:01.968Z,2.77
2022-10-20T05:31:30.643Z,2.73
2022-10-20T05:33:59.279Z,2.71
2022-10-20T05:36:28.923Z,2.70
2022-10-20T05:38:57.567Z,2.68
2022-10-20T05:41:28.524Z,2.66
2022-10-20T05:43:59.068Z,2.66
2022-10-20T05:46:29.314Z,2.70
2022-10-20T05:48:59.708Z,2.67
2022-10-20T05:51:30.416Z,2.63
2022-10-20T05:54:02.533Z,2.60
2022-10-20T05:56:33.010Z,2.58
2022-10-20T05:59:01.631Z,2.54
2022-10-20T06:01:39.560Z,2.56
2022-10-20T06:04:08.435Z,2.54
2022-10-20T06:06:37.300Z,2.51
2022-10-20T06:09:07.823Z,2.49
2022-10-20T06:11:39.478Z,2.50
2022-10-20T06:14:09.174Z,2.52
2022-10-20T06:16:37.874Z,2.53
2022-10-20T06:19:06.682Z,2.54
2022-10-20T06:21:37.353Z,2.56
2022-10-20T06:24:07.328Z,2.59
2022-10-20T06:26:40.155Z,2.63
2022-10-20T06:29:12.060Z,2.62
2022-10-20T06:31:43.940Z,2.59
2022-10-20T06:34:15.884Z,2.65
2022-10-20T06:36:45.475Z,2.67
2022-10-20T06:39:16.837Z,2.71
2022-10-20T06:41:50.039Z,2.75
2022-10-20T06:44:23.095Z,2.78
2022-10-20T06:46:52.039Z,2.81
2022-10-20T06:49:21.066Z,2.84
2022-10-20T06:51:50.127Z,2.86
2022-10-20T06:54:18.858Z,2.90
2022-10-20T06:56:47.884Z,2.95
2022-10-20T06:59:16.752Z,2.97
2022-10-20T07:01:45.364Z,3.00
2022-10-20T07:04:15.598Z,3.01
2022-10-20T07:06:46.095Z,3.02
2022-10-20T08:35:49.036Z,5.30
2022-10-20T08:38:21.030Z,5.37
2022-10-20T08:40:53.090Z,5.46
2022-10-20T08:43:26.409Z,5.57
2022-10-20T08:45:58.692Z,5.67
2022-10-20T08:48:33.807Z,5.76
2022-10-20T08:51:06.216Z,5.86
2022-10-20T08:53:41.329Z,5.94
2022-10-20T08:56:15.320Z,6.01
2022-10-20T08:58:47.920Z,6.08
2022-10-20T09:01:24.437Z,6.16
2022-10-20T09:03:59.830Z,6.24
2022-10-20T09:06:32.323Z,6.31
2022-10-20T09:09:05.023Z,6.38
2022-10-20T09:11:41.272Z,6.45
2022-10-20T09:14:14.016Z,6.52
2022-10-20T09:16:59.890Z,6.60
2022-10-20T09:19:33.703Z,6.68
2022-10-20T09:22:08.321Z,6.75
2022-10-20T09:24:42.896Z,6.82
2022-10-20T09:27:31.146Z,6.88
2022-10-20T09:30:17.399Z,6.95
2022-10-20T09:32:50.686Z,7.02
2022-10-20T09:35:31.805Z,7.09
2022-10-20T09:38:19.965Z,7.16
2022-10-20T09:41:08.215Z,7.23
2022-10-20T09:43:49.032Z,7.28
2022-10-20T09:46:25.568Z,7.34
2022-10-20T09:49:01.022Z,7.41
2022-10-20T09:51:34.080Z,7.48
2022-10-20T09:54:09.077Z,7.56
2022-10-20T09:56:43.241Z,7.64
2022-10-20T09:59:26.364Z,7.72
2022-10-20T10:02:01.358Z,7.77
2022-10-20T10:04:37.008Z,7.86
2022-10-20T10:07:33.082Z,7.94
2022-10-20T10:10:08.756Z,8.00
2022-10-20T10:12:41.098Z,8.05
2022-10-20T10:15:32.564Z,8.10
2022-10-20T10:18:16.141Z,8.14
2022-10-20T10:20:48.541Z,8.19
2022-10-20T10:23:23.936Z,8.26
2022-10-20T10:25:59.333Z,8.33
2022-10-20T10:28:38.588Z,8.38
2022-10-20T10:31:25.201Z,8.42
2022-10-20T10:34:23.862Z,8.44
2022-10-20T10:36:56.557Z,8.50
2022-10-20T10:39:30.354Z,8.60
2022-10-20T10:42:17.192Z,8.72
2022-10-20T10:45:00.801Z,8.85
2022-10-20T10:48:02.210Z,8.94
2022-10-20T10:50:42.558Z,9.00
2022-10-20T10:53:29.930Z,9.09
2022-10-20T10:56:14.146Z,9.18
2022-10-20T10:58:52.927Z,9.29
2022-10-20T11:02:02.999Z,9.41
2022-10-20T11:05:05.310Z,9.50
2022-10-20T11:07:44.150Z,9.61
2022-10-20T11:10:23.872Z,9.69
2022-10-20T11:13:13.932Z,9.79
2022-10-20T11:15:59.788Z,9.86
2022-10-20T11:18:52.445Z,9.89
2022-10-20T11:21:33.990Z,10.00
2022-10-20T11:24:17.819Z,10.10
2022-10-20T11:26:54.539Z,10.21
2022-10-20T11:29:37.588Z,10.35
2022-10-20T11:32:19.208Z,10.49
2022-10-20T11:35:02.182Z,10.57
2022-10-20T11:37:39.886Z,10.65
2022-10-20T11:40:23.432Z,10.69
2022-10-20T11:43:02.314Z,10.69
2022-10-20T11:45:44.130Z,10.71
2022-10-20T11:48:24.069Z,10.75
2022-10-20T11:51:11.491Z,10.76
2022-10-20T11:54:05.434Z,10.76
2022-10-20T11:56:54.769Z,10.65
2022-10-20T11:59:48.165Z,10.63
2022-10-20T12:03:08.794Z,10.60
2022-10-20T12:06:04.147Z,10.53
2022-10-20T12:08:54.833Z,10.48
2022-10-20T12:11:33.036Z,10.43
2022-10-20T12:14:17.595Z,10.42
2022-10-20T12:17:27.294Z,10.39
2022-10-20T12:20:30.050Z,10.35
2022-10-20T12:23:03.046Z,10.36
2022-10-20T12:25:42.287Z,10.36
2022-10-20T12:28:35.284Z,10.36
2022-10-20T12:31:08.455Z,10.37
2022-10-20T12:34:03.848Z,10.40
2022-10-20T12:36:37.685Z,10.41
2022-10-20T12:39:22.511Z,10.40
2022-10-20T12:42:05.227Z,10.43
2022-10-20T12:44:45.108Z,10.51
2022-10-20T12:47:29.980Z,10.54
2022-10-20T12:50:06.300Z,10.58
2022-10-20T12:52:41.721Z,10.58
2022-10-20T12:55:23.477Z,10.56
2022-10-20T12:58:13.317Z,10.53
2022-10-20T13:01:07.880Z,10.47
2022-10-20T13:03:47.023Z,10.43
2022-10-20T13:10:49.403Z,10.27
2022-10-20T13:14:03.865Z,10.21
2022-10-20T13:16:37.559Z,10.14
2022-10-20T13:19:15.091Z,10.16
2022-10-20T13:21:49.625Z,10.20
2022-10-20T13:24:27.793Z,10.21
2022-10-20T13:27:05.393Z,10.24
2022-10-20T13:29:43.236Z,10.26
2022-10-20T13:32:23.510Z,10.28
2022-10-20T13:35:00.087Z,10.30
2022-10-20T13:37:53.760Z,10.34
2022-10-20T13:40:37.383Z,10.32
2022-10-20T13:43:28.520Z,10.29
2022-10-20T13:46:19.354Z,10.29
2022-10-20T13:49:11.257Z,10.28
2022-10-20T13:51:48.404Z,10.27
2022-10-20T13:54:28.702Z,10.27
2022-10-20T13:57:02.966Z,10.28
2022-10-20T13:59:58.327Z,10.27
2022-10-20T14:02:35.734Z,10.29
2022-10-20T14:05:15.061Z,10.32
2022-10-20T14:07:47.536Z,10.39
2022-10-20T14:29:56.462Z,10.46
2022-10-20T14:43:40.006Z,10.57
2022-10-20T14:46:15.454Z,10.44
2022-10-20T14:48:51.789Z,10.41
2022-10-20T14:51:39.788Z,10.36
2022-10-20T14:54:27.049Z,10.28
2022-10-20T14:57:00.728Z,10.31
2022-10-20T14:59:35.055Z,10.33
2022-10-20T15:02:12.598Z,10.33
2022-10-20T15:04:46.154Z,10.33
2022-10-20T15:07:20.856Z,10.28
2022-10-20T15:10:02.928Z,10.25
2022-10-20T15:12:43.677Z,10.20
2022-10-20T15:15:27.373Z,10.20
2022-10-20T15:18:19.154Z,10.17
2022-10-20T15:20:51.889Z,10.10
2022-10-20T15:23:26.021Z,10.06
2022-10-20T15:26:02.884Z,10.05
2022-10-20T15:28:42.132Z,10.03
2022-10-20T15:31:23.596Z,10.02
2022-10-20T15:33:57.636Z,9.99
2022-10-20T15:36:33.369Z,9.90
2022-10-20T15:39:06.601Z,9.85
2022-10-20T15:41:39.557Z,9.82
2022-10-20T15:44:17.006Z,9.81
2022-10-20T15:46:50.095Z,9.78
2022-10-20T15:49:23.964Z,9.74
2022-10-20T15:51:56.111Z,9.67
2022-10-20T15:54:28.228Z,9.62
2022-10-20T15:57:01.416Z,9.61
2022-10-20T15:59:33.549Z,9.59
2022-10-20T16:02:08.301Z,9.56
2022-10-20T16:04:40.450Z,9.50
2022-10-20T16:07:12.515Z,9.47
2022-10-20T16:13:39.493Z,9.30
2022-10-20T16:16:17.502Z,9.20
2022-10-20T16:18:49.741Z,9.16
2022-10-20T16:21:21.807Z,9.16
2022-10-20T16:23:54.076Z,9.18
2022-10-20T16:30:39.679Z,9.03
2022-10-20T16:33:12.418Z,9.01
2022-10-20T16:35:55.046Z,9.00
2022-10-20T16:38:44.077Z,8.96
2022-10-20T16:41:20.883Z,8.93
2022-10-20T16:44:00.919Z,8.90
2022-10-20T16:46:51.543Z,8.85
2022-10-20T16:49:40.283Z,8.87
2022-10-20T16:52:26.330Z,8.82
2022-10-20T16:54:58.353Z,8.78
2022-10-20T16:57:38.392Z,8.76
2022-10-20T17:00:16.213Z,8.72
2022-10-20T17:02:57.821Z,8.70
2022-10-20T17:05:30.321Z,8.67
2022-10-20T17:08:02.879Z,8.65
2022-10-20T18:00:22.904Z,8.30
2022-10-20T18:03:06.281Z,8.06
2022-10-20T18:05:39.694Z,8.06
2022-10-20T18:08:11.708Z,8.05
2022-10-20T18:21:28.362Z,8.00
2022-10-20T18:24:02.606Z,7.78
2022-10-20T18:26:36.534Z,7.75
2022-10-20T18:29:10.368Z,7.71
2022-10-20T18:31:44.905Z,7.68
2022-10-20T18:34:20.613Z,7.63
2022-10-20T18:36:56.734Z,7.65
2022-10-20T18:39:29.037Z,7.65
2022-10-20T18:42:01.767Z,7.64
2022-10-20T18:49:09.249Z,7.39
2022-10-20T18:54:34.785Z,7.35
2022-10-20T18:57:06.963Z,7.29
2022-10-20T18:59:39.062Z,7.31
2022-10-20T19:02:13.276Z,7.31
2022-10-20T19:04:45.388Z,7.30
2022-10-20T19:07:18.037Z,7.31
2022-10-20T19:09:54.815Z,7.31
2022-10-20T19:12:28.026Z,7.26
2022-10-20T19:15:00.043Z,7.24
2022-10-20T19:17:35.136Z,7.20
2022-10-20T19:20:08.215Z,7.20
2022-10-20T19:22:40.585Z,7.22
2022-10-20T19:25:13.157Z,7.20
2022-10-20T19:27:45.164Z,7.15
2022-10-20T19:30:17.396Z,7.12
2022-10-20T19:32:52.328Z,7.08
2022-10-20T19:35:24.799Z,7.08
2022-10-20T19:37:56.925Z,7.07
2022-10-20T19:40:29.063Z,7.00
2022-10-20T19:43:01.076Z,6.97
2022-10-20T19:45:33.514Z,6.99
2022-10-20T19:48:06.368Z,6.96
2022-10-20T19:50:38.512Z,6.92
2022-10-20T19:53:10.473Z,6.91
2022-10-20T19:55:42.493Z,6.91
2022-10-20T19:58:14.638Z,6.91
2022-10-20T20:00:47.963Z,6.86
2022-10-20T20:03:20.368Z,6.79
2022-10-20T20:05:59.679Z,6.75
2022-10-20T20:08:31.866Z,6.72
2022-10-20T20:11:05.322Z,6.72
2022-10-20T20:13:39.483Z,6.75
2022-10-20T20:16:11.722Z,6.77
2022-10-20T20:18:43.857Z,6.76
2022-10-20T20:21:15.984Z,6.76
2022-10-20T20:23:59.485Z,6.77
2022-10-20T20:26:37.899Z,6.73
2022-10-20T20:29:10.724Z,6.73
2022-10-20T20:31:43.229Z,6.69
2022-10-20T20:34:15.374Z,6.61
2022-10-20T20:36:47.524Z,6.54
2022-10-20T20:39:19.637Z,6.51
2022-10-20T20:41:51.630Z,6.48
2022-10-20T20:47:03.113Z,6.40
2022-10-20T20:49:35.174Z,6.40
2022-10-20T20:52:07.813Z,6.42
2022-10-20T20:54:39.829Z,6.38
2022-10-20T20:57:11.923Z,6.37
2022-10-20T20:59:44.669Z,6.38
2022-10-20T21:02:17.035Z,6.39
2022-10-20T21:04:49.089Z,6.39
2022-10-20T21:07:21.490Z,6.38
2022-10-20T21:29:20.733Z,6.37
2022-10-20T21:43:17.647Z,6.44
2022-10-20T23:49:58.895Z,5.85
